Time,TemperatureF,DewpointF,PressureIn,WindDirection,WindDirectionDegrees,WindSpeedMPH,WindSpeedGustMPH,Humidity,HourlyPrecipIn,Conditions,Clouds,dailyrainin,SoftwareType,DateUTC
2014-07-11 00:01:00,72.2,69.4,30.14,SSE,155,0.0,0.0,91,0.00,,---,0.00,VWS V15.00,2014-07-11 04:01:00,
2014-07-11 01:11:00,70.8,66.7,30.16,South,180,6.0,7.0,87,0.02,,---,0.02,VWS V15.00,2014-07-11 05:11:00,
2014-07-11 01:16:00,70.1,66.7,30.16,SSE,157,2.0,9.0,89,0.06,,---,0.06,VWS V15.00,2014-07-11 05:16:00,
2014-07-11 01:21:00,69.4,66.7,30.17,SSE,151,4.0,9.0,91,0.11,,---,0.11,VWS V15.00,2014-07-11 05:21:00,
2014-07-11 01:26:00,68.5,66.1,30.17,SSE,152,2.0,9.0,92,0.19,,---,0.19,VWS V15.00,2014-07-11 05:26:00,
2014-07-11 01:31:00,67.9,65.8,30.17,SSE,154,1.0,3.0,93,0.22,,---,0.22,VWS V15.00,2014-07-11 05:31:00,
2014-07-11 01:36:00,67.6,65.8,30.17,SSE,167,0.0,4.0,94,0.31,,---,0.31,VWS V15.00,2014-07-11 05:36:00,
2014-07-11 01:41:00,67.4,65.6,30.17,WSW,241,3.0,4.0,94,0.39,,---,0.39,VWS V15.00,2014-07-11 05:41:00,
2014-07-11 01:46:00,67.1,65.3,30.17,NNW,338,0.0,6.0,94,0.46,,---,0.46,VWS V15.00,2014-07-11 05:46:00,
2014-07-11 01:51:00,67.0,65.5,30.17,SSW,207,0.0,6.0,95,0.54,,---,0.54,VWS V15.00,2014-07-11 05:51:00,
2014-07-11 01:56:00,66.9,65.4,30.17,SW,221,0.0,6.0,95,0.71,,---,0.71,VWS V15.00,2014-07-11 05:56:00,
2014-07-11 02:01:00,66.8,65.3,30.17,SW,230,0.0,0.0,95,0.79,,---,0.79,VWS V15.00,2014-07-11 06:01:00,
2014-07-11 02:06:00,66.6,65.1,30.16,WNW,284,0.0,4.0,95,0.80,,---,0.80,VWS V15.00,2014-07-11 06:06:00,
2014-07-11 02:11:00,66.5,65.3,30.16,WNW,284,0.0,4.0,96,0.85,,---,0.85,VWS V15.00,2014-07-11 06:11:00,
2014-07-11 02:16:00,66.4,65.2,30.16,WNW,284,0.0,4.0,96,0.86,,---,0.86,VWS V15.00,2014-07-11 06:16:00,
2014-07-11 02:21:00,66.5,65.3,30.16,WNW,284,0.0,4.0,96,0.87,,---,0.87,VWS V15.00,2014-07-11 06:21:00,
2014-07-11 02:26:00,66.6,65.4,30.15,WNW,284,0.0,4.0,96,0.87,,---,0.87,VWS V15.00,2014-07-11 06:26:00,
2014-07-11 02:31:00,66.5,65.3,30.14,WNW,284,0.0,1.0,96,0.65,,---,0.87,VWS V15.00,2014-07-11 06:31:00,
2014-07-11 02:36:00,66.5,65.6,30.14,West,275,0.0,3.0,97,0.65,,---,0.87,VWS V15.00,2014-07-11 06:36:00,
2014-07-11 02:41:00,66.6,65.7,30.14,West,275,0.0,3.0,97,0.65,,---,0.87,VWS V15.00,2014-07-11 06:41:00,
2014-07-11 02:46:00,66.6,65.7,30.13,West,275,1.0,3.0,97,0.65,,---,0.87,VWS V15.00,2014-07-11 06:46:00,
2014-07-11 02:51:00,66.6,65.7,30.13,West,267,0.0,3.0,97,0.65,,---,0.87,VWS V15.00,2014-07-11 06:51:00,
2014-07-11 02:56:00,66.6,65.7,30.13,West,259,0.0,3.0,97,0.65,,---,0.87,VWS V15.00,2014-07-11 06:56:00,
2014-07-11 03:01:00,66.5,65.6,30.12,WNW,296,3.0,4.0,97,0.09,,---,0.87,VWS V15.00,2014-07-11 07:01:00,
2014-07-11 03:06:00,66.4,65.5,30.12,WNW,300,2.0,4.0,97,0.09,,---,0.87,VWS V15.00,2014-07-11 07:06:00,
2014-07-11 03:11:00,66.4,65.5,30.12,WNW,299,0.0,5.0,97,0.09,,---,0.87,VWS V15.00,2014-07-11 07:11:00,
2014-07-11 03:16:00,66.4,65.5,30.12,WNW,299,0.0,5.0,97,0.09,,---,0.87,VWS V15.00,2014-07-11 07:16:00,
2014-07-11 03:21:00,66.2,65.0,30.13,NNW,330,2.0,5.0,96,0.09,,---,0.87,VWS V15.00,2014-07-11 07:21:00,
2014-07-11 03:26:00,66.1,64.9,30.14,NNW,331,0.0,5.0,96,0.09,,---,0.87,VWS V15.00,2014-07-11 07:26:00,
2014-07-11 03:31:00,66.0,64.8,30.13,NNW,331,1.0,3.0,96,0.00,,---,0.87,VWS V15.00,2014-07-11 07:31:00,
2014-07-11 03:36:00,65.9,65.0,30.13,NNW,336,1.0,4.0,97,0.00,,---,0.87,VWS V15.00,2014-07-11 07:36:00,
2014-07-11 03:41:00,65.8,64.9,30.13,NNW,337,2.0,4.0,97,0.00,,---,0.87,VWS V15.00,2014-07-11 07:41:00,
2014-07-11 03:46:00,65.8,64.9,30.14,NNW,335,1.0,4.0,97,0.00,,---,0.87,VWS V15.00,2014-07-11 07:46:00,
2014-07-11 03:51:00,65.7,64.8,30.13,NNW,336,0.0,4.0,97,0.00,,---,0.87,VWS V15.00,2014-07-11 07:51:00,
2014-07-11 03:56:00,65.8,64.9,30.14,NNW,336,0.0,4.0,97,0.00,,---,0.87,VWS V15.00,2014-07-11 07:56:00,
2014-07-11 04:01:00,65.8,64.9,30.14,NNW,336,0.0,0.0,97,0.00,,---,0.87,VWS V15.00,2014-07-11 08:01:00,
2014-07-11 04:06:00,65.8,64.9,30.14,NNW,336,0.0,0.0,97,0.00,,---,0.87,VWS V15.00,2014-07-11 08:06:00,
2014-07-11 04:11:00,65.7,64.8,30.14,NNW,336,0.0,0.0,97,0.00,,---,0.87,VWS V15.00,2014-07-11 08:11:00,
2014-07-11 04:16:00,65.7,64.8,30.14,NNW,336,0.0,1.0,97,0.00,,---,0.87,VWS V15.00,2014-07-11 08:16:00,
2014-07-11 04:21:00,65.7,64.8,30.14,NNW,336,0.0,1.0,97,0.00,,---,0.87,VWS V15.00,2014-07-11 08:21:00,
2014-07-11 04:26:00,65.6,64.7,30.14,NNW,336,0.0,1.0,97,0.00,,---,0.87,VWS V15.00,2014-07-11 08:26:00,
2014-07-11 04:31:00,65.4,64.5,30.14,NNW,336,0.0,0.0,97,0.00,,---,0.87,VWS V15.00,2014-07-11 08:31:00,
2014-07-11 04:36:00,65.3,64.4,30.14,NNW,336,0.0,0.0,97,0.00,,---,0.87,VWS V15.00,2014-07-11 08:36:00,
2014-07-11 04:41:00,65.2,64.3,30.15,NNW,336,0.0,0.0,97,0.00,,---,0.87,VWS V15.00,2014-07-11 08:41:00,
2014-07-11 04:46:00,65.2,64.3,30.14,NNW,336,0.0,1.0,97,0.00,,---,0.87,VWS V15.00,2014-07-11 08:46:00,
2014-07-11 04:51:00,65.3,64.4,30.14,NNW,336,0.0,1.0,97,0.00,,---,0.87,VWS V15.00,2014-07-11 08:51:00,
2014-07-11 04:56:00,65.2,64.3,30.14,NNW,336,0.0,1.0,97,0.00,,---,0.87,VWS V15.00,2014-07-11 08:56:00,
2014-07-11 05:01:00,65.2,64.6,30.14,NNW,336,0.0,0.0,98,0.00,,---,0.87,VWS V15.00,2014-07-11 09:01:00,
2014-07-11 05:06:00,65.1,64.2,30.15,NNW,336,0.0,0.0,97,0.00,,---,0.87,VWS V15.00,2014-07-11 09:06:00,
2014-07-11 05:11:00,65.1,64.5,30.15,NNW,336,0.0,0.0,98,0.00,,---,0.87,VWS V15.00,2014-07-11 09:11:00,
2014-07-11 05:16:00,65.0,64.1,30.15,NNW,336,0.0,0.0,97,0.00,,---,0.87,VWS V15.00,2014-07-11 09:16:00,
2014-07-11 05:21:00,64.9,64.0,30.15,NNW,336,0.0,0.0,97,0.00,,---,0.87,VWS V15.00,2014-07-11 09:21:00,
2014-07-11 05:26:00,64.7,63.8,30.15,NNW,336,0.0,0.0,97,0.00,,---,0.87,VWS V15.00,2014-07-11 09:26:00,
2014-07-11 05:31:00,64.7,64.1,30.15,NNW,336,0.0,0.0,98,0.00,,---,0.87,VWS V15.00,2014-07-11 09:31:00,
2014-07-11 05:36:00,64.6,64.0,30.15,NNW,336,0.0,0.0,98,0.00,,---,0.87,VWS V15.00,2014-07-11 09:36:00,
2014-07-11 05:41:00,64.5,63.6,30.16,NNW,336,0.0,0.0,97,0.00,,---,0.87,VWS V15.00,2014-07-11 09:41:00,
2014-07-11 05:46:00,64.4,63.5,30.16,NNW,336,0.0,0.0,97,0.00,,---,0.87,VWS V15.00,2014-07-11 09:46:00,
2014-07-11 05:51:00,64.3,63.4,30.16,NNW,336,0.0,0.0,97,0.00,,---,0.87,VWS V15.00,2014-07-11 09:51:00,
2014-07-11 05:56:00,64.2,63.6,30.16,NNW,336,0.0,0.0,98,0.00,,---,0.87,VWS V15.00,2014-07-11 09:56:00,
2014-07-11 06:01:00,64.1,63.5,30.16,NNW,336,0.0,0.0,98,0.00,,---,0.87,VWS V15.00,2014-07-11 10:01:00,
2014-07-11 06:06:00,63.9,63.3,30.17,NNW,336,0.0,0.0,98,0.00,,---,0.87,VWS V15.00,2014-07-11 10:06:00,
2014-07-11 06:11:00,63.8,62.9,30.17,NNW,336,0.0,0.0,97,0.00,,---,0.87,VWS V15.00,2014-07-11 10:11:00,
2014-07-11 06:16:00,63.7,63.1,30.17,NNW,336,0.0,0.0,98,0.00,,---,0.87,VWS V15.00,2014-07-11 10:16:00,
2014-07-11 06:21:00,63.7,63.1,30.17,NNW,336,0.0,1.0,98,0.00,,---,0.87,VWS V15.00,2014-07-11 10:21:00,
2014-07-11 06:26:00,63.7,63.1,30.17,NNW,336,0.0,1.0,98,0.00,,---,0.87,VWS V15.00,2014-07-11 10:26:00,
2014-07-11 06:31:00,63.9,63.3,30.17,NNW,336,0.0,0.0,98,0.00,,---,0.87,VWS V15.00,2014-07-11 10:31:00,
2014-07-11 06:36:00,63.9,63.3,30.17,NNW,336,0.0,0.0,98,0.01,,---,0.88,VWS V15.00,2014-07-11 10:36:00,
2014-07-11 06:41:00,64.0,63.4,30.17,NNW,336,0.0,0.0,98,0.01,,---,0.88,VWS V15.00,2014-07-11 10:41:00,
2014-07-11 06:46:00,64.0,63.4,30.17,NNW,336,0.0,0.0,98,0.01,,---,0.88,VWS V15.00,2014-07-11 10:46:00,
2014-07-11 06:51:00,64.0,63.4,30.18,NNW,336,0.0,0.0,98,0.01,,---,0.88,VWS V15.00,2014-07-11 10:51:00,
2014-07-11 06:56:00,64.0,63.4,30.18,NNW,336,0.0,0.0,98,0.01,,---,0.88,VWS V15.00,2014-07-11 10:56:00,
2014-07-11 07:01:00,64.1,63.5,30.18,NNW,336,0.0,0.0,98,0.01,,---,0.88,VWS V15.00,2014-07-11 11:01:00,
2014-07-11 07:06:00,64.1,63.5,30.18,NNW,336,0.0,0.0,98,0.01,,---,0.88,VWS V15.00,2014-07-11 11:06:00,
2014-07-11 07:11:00,64.2,63.6,30.18,NNW,336,0.0,0.0,98,0.01,,---,0.88,VWS V15.00,2014-07-11 11:11:00,
2014-07-11 07:16:00,64.3,63.7,30.18,NNW,336,0.0,0.0,98,0.01,,---,0.88,VWS V15.00,2014-07-11 11:16:00,
2014-07-11 07:21:00,64.4,63.8,30.19,NNW,336,0.0,0.0,98,0.01,,---,0.88,VWS V15.00,2014-07-11 11:21:00,
2014-07-11 07:26:00,64.5,63.9,30.19,NNW,336,0.0,1.0,98,0.01,,---,0.88,VWS V15.00,2014-07-11 11:26:00,
2014-07-11 07:31:00,64.7,64.1,30.19,NNW,336,0.0,0.0,98,0.01,,---,0.88,VWS V15.00,2014-07-11 11:31:00,
2014-07-11 07:36:00,64.9,64.6,30.19,NNW,331,0.0,0.0,99,0.01,,---,0.88,VWS V15.00,2014-07-11 11:36:00,
2014-07-11 07:41:00,64.9,64.6,30.19,NNW,330,2.0,2.0,99,0.01,,---,0.88,VWS V15.00,2014-07-11 11:41:00,